sensor_id;sensor_type;location;lat;lon;timestamp;P1;durP1;ratioP1;P2;durP2;ratioP2
3267;SDS011;1646;52.450;13.326;2022-12-16T00:01:15;73.37;;;33.10;;
3267;SDS011;1646;52.450;13.326;2022-12-16T00:06:15;69.90;;;31.70;;
3267;SDS011;1646;52.450;13.326;2022-12-16T00:11:15;76.33;;;32.37;;
3267;SDS011;1646;52.450;13.326;2022-12-16T00:16:14;74.03;;;31.50;;
3267;SDS011;1646;52.450;13.326;2022-12-16T00:21:14;75.27;;;30.60;;
3267;SDS011;1646;52.450;13.326;2022-12-16T00:26:15;72.87;;;30.83;;
3267;SDS011;1646;52.450;13.326;2022-12-16T00:31:13;60.77;;;28.30;;
3267;SDS011;1646;52.450;13.326;2022-12-16T00:36:11;65.67;;;29.10;;
3267;SDS011;1646;52.450;13.326;2022-12-16T00:41:09;82.47;;;32.30;;
3267;SDS011;1646;52.450;13.326;2022-12-16T00:46:08;67.43;;;30.67;;
3267;SDS011;1646;52.450;13.326;2022-12-16T00:51:07;72.43;;;30.37;;
3267;SDS011;1646;52.450;13.326;2022-12-16T00:56:05;71.37;;;29.60;;
3267;SDS011;1646;52.450;13.326;2022-12-16T01:01:05;72.30;;;29.53;;
3267;SDS011;1646;52.450;13.326;2022-12-16T01:06:08;74.30;;;31.27;;
3267;SDS011;1646;52.450;13.326;2022-12-16T01:11:08;72.70;;;31.00;;
3267;SDS011;1646;52.450;13.326;2022-12-16T01:16:06;71.37;;;30.23;;
3267;SDS011;1646;52.450;13.326;2022-12-16T01:21:05;76.50;;;30.90;;
3267;SDS011;1646;52.450;13.326;2022-12-16T01:26:08;62.90;;;29.70;;
3267;SDS011;1646;52.450;13.326;2022-12-16T01:31:11;72.73;;;31.10;;
3267;SDS011;1646;52.450;13.326;2022-12-16T01:36:12;76.83;;;29.33;;
3267;SDS011;1646;52.450;13.326;2022-12-16T01:41:10;65.07;;;29.40;;
3267;SDS011;1646;52.450;13.326;2022-12-16T01:46:12;75.27;;;28.60;;
3267;SDS011;1646;52.450;13.326;2022-12-16T01:51:17;63.50;;;29.33;;
3267;SDS011;1646;52.450;13.326;2022-12-16T01:56:19;71.73;;;28.50;;
3267;SDS011;1646;52.450;13.326;2022-12-16T02:01:20;70.37;;;30.87;;
3267;SDS011;1646;52.450;13.326;2022-12-16T02:06:20;67.63;;;29.10;;
3267;SDS011;1646;52.450;13.326;2022-12-16T02:11:22;70.17;;;29.27;;
3267;SDS011;1646;52.450;13.326;2022-12-16T02:16:34;64.97;;;28.20;;
3267;SDS011;1646;52.450;13.326;2022-12-16T02:21:44;67.53;;;27.47;;
3267;SDS011;1646;52.450;13.326;2022-12-16T02:32:17;59.90;;;26.43;;
3267;SDS011;1646;52.450;13.326;2022-12-16T02:37:24;68.33;;;27.43;;
3267;SDS011;1646;52.450;13.326;2022-12-16T02:42:35;61.40;;;26.27;;
3267;SDS011;1646;52.450;13.326;2022-12-16T02:47:39;63.27;;;26.57;;
3267;SDS011;1646;52.450;13.326;2022-12-16T02:52:37;57.40;;;27.40;;
3267;SDS011;1646;52.450;13.326;2022-12-16T02:57:58;57.27;;;25.57;;
3267;SDS011;1646;52.450;13.326;2022-12-16T03:03:04;64.77;;;25.60;;
3267;SDS011;1646;52.450;13.326;2022-12-16T03:08:06;71.00;;;27.97;;
3267;SDS011;1646;52.450;13.326;2022-12-16T03:13:09;58.50;;;27.10;;
3267;SDS011;1646;52.450;13.326;2022-12-16T03:18:09;62.83;;;25.90;;
3267;SDS011;1646;52.450;13.326;2022-12-16T03:23:10;63.40;;;28.27;;
3267;SDS011;1646;52.450;13.326;2022-12-16T03:28:14;74.37;;;31.00;;
3267;SDS011;1646;52.450;13.326;2022-12-16T03:33:23;60.60;;;26.37;;
3267;SDS011;1646;52.450;13.326;2022-12-16T03:38:26;79.70;;;27.73;;
3267;SDS011;1646;52.450;13.326;2022-12-16T03:43:26;72.27;;;27.90;;
3267;SDS011;1646;52.450;13.326;2022-12-16T03:48:26;62.53;;;27.50;;
3267;SDS011;1646;52.450;13.326;2022-12-16T03:53:24;66.30;;;28.10;;
3267;SDS011;1646;52.450;13.326;2022-12-16T03:58:22;57.67;;;24.57;;
3267;SDS011;1646;52.450;13.326;2022-12-16T04:03:20;63.73;;;29.03;;
3267;SDS011;1646;52.450;13.326;2022-12-16T04:08:20;76.50;;;27.30;;
3267;SDS011;1646;52.450;13.326;2022-12-16T04:13:18;73.60;;;28.90;;
3267;SDS011;1646;52.450;13.326;2022-12-16T04:18:33;70.80;;;28.60;;
3267;SDS011;1646;52.450;13.326;2022-12-16T04:23:52;61.13;;;26.10;;
3267;SDS011;1646;52.450;13.326;2022-12-16T04:29:10;61.00;;;26.83;;
3267;SDS011;1646;52.450;13.326;2022-12-16T04:34:08;60.27;;;28.87;;
3267;SDS011;1646;52.450;13.326;2022-12-16T04:39:26;61.57;;;28.80;;
3267;SDS011;1646;52.450;13.326;2022-12-16T04:44:42;65.23;;;27.33;;
3267;SDS011;1646;52.450;13.326;2022-12-16T04:49:57;61.37;;;26.60;;
3267;SDS011;1646;52.450;13.326;2022-12-16T04:55:14;68.33;;;24.57;;
3267;SDS011;1646;52.450;13.326;2022-12-16T05:00:30;56.07;;;26.30;;
3267;SDS011;1646;52.450;13.326;2022-12-16T05:05:54;60.13;;;26.07;;
3267;SDS011;1646;52.450;13.326;2022-12-16T05:11:11;63.03;;;28.03;;
3267;SDS011;1646;52.450;13.326;2022-12-16T05:16:27;64.50;;;26.37;;
3267;SDS011;1646;52.450;13.326;2022-12-16T05:21:42;73.53;;;28.00;;
3267;SDS011;1646;52.450;13.326;2022-12-16T05:26:59;71.70;;;28.80;;
3267;SDS011;1646;52.450;13.326;2022-12-16T05:32:15;64.53;;;29.57;;
3267;SDS011;1646;52.450;13.326;2022-12-16T05:37:31;59.93;;;27.20;;
3267;SDS011;1646;52.450;13.326;2022-12-16T05:42:49;75.57;;;29.00;;
3267;SDS011;1646;52.450;13.326;2022-12-16T05:48:11;75.83;;;27.20;;
3267;SDS011;1646;52.450;13.326;2022-12-16T05:53:43;62.70;;;26.87;;
3267;SDS011;1646;52.450;13.326;2022-12-16T05:59:00;66.10;;;26.97;;
3267;SDS011;1646;52.450;13.326;2022-12-16T06:04:16;61.83;;;26.47;;
3267;SDS011;1646;52.450;13.326;2022-12-16T06:09:31;67.00;;;26.77;;
3267;SDS011;1646;52.450;13.326;2022-12-16T06:14:53;65.00;;;27.73;;
3267;SDS011;1646;52.450;13.326;2022-12-16T06:20:09;64.67;;;27.57;;
3267;SDS011;1646;52.450;13.326;2022-12-16T06:25:25;70.07;;;26.40;;
3267;SDS011;1646;52.450;13.326;2022-12-16T06:30:41;58.97;;;26.40;;
3267;SDS011;1646;52.450;13.326;2022-12-16T06:35:57;67.37;;;27.90;;
3267;SDS011;1646;52.450;13.326;2022-12-16T06:41:13;58.87;;;26.60;;
3267;SDS011;1646;52.450;13.326;2022-12-16T06:46:30;63.07;;;28.47;;
3267;SDS011;1646;52.450;13.326;2022-12-16T06:51:45;75.50;;;28.33;;
3267;SDS011;1646;52.450;13.326;2022-12-16T06:57:09;70.47;;;30.00;;
3267;SDS011;1646;52.450;13.326;2022-12-16T07:02:26;62.47;;;28.50;;
3267;SDS011;1646;52.450;13.326;2022-12-16T07:07:45;70.30;;;29.03;;
3267;SDS011;1646;52.450;13.326;2022-12-16T07:13:01;69.50;;;28.93;;
3267;SDS011;1646;52.450;13.326;2022-12-16T07:18:18;70.00;;;27.70;;
3267;SDS011;1646;52.450;13.326;2022-12-16T07:23:34;59.73;;;27.00;;
3267;SDS011;1646;52.450;13.326;2022-12-16T07:28:51;64.03;;;28.30;;
3267;SDS011;1646;52.450;13.326;2022-12-16T07:34:08;67.80;;;26.83;;
3267;SDS011;1646;52.450;13.326;2022-12-16T07:39:23;76.47;;;35.30;;
3267;SDS011;1646;52.450;13.326;2022-12-16T07:44:39;78.07;;;34.50;;
3267;SDS011;1646;52.450;13.326;2022-12-16T07:49:55;63.83;;;27.87;;
3267;SDS011;1646;52.450;13.326;2022-12-16T07:55:11;69.23;;;28.77;;
3267;SDS011;1646;52.450;13.326;2022-12-16T08:00:26;69.20;;;28.47;;
3267;SDS011;1646;52.450;13.326;2022-12-16T08:05:46;69.13;;;29.67;;
3267;SDS011;1646;52.450;13.326;2022-12-16T08:11:03;70.67;;;28.27;;
3267;SDS011;1646;52.450;13.326;2022-12-16T08:16:18;71.90;;;29.20;;
3267;SDS011;1646;52.450;13.326;2022-12-16T08:21:35;68.73;;;30.07;;
3267;SDS011;1646;52.450;13.326;2022-12-16T08:26:51;71.73;;;31.97;;
3267;SDS011;1646;52.450;13.326;2022-12-16T08:32:07;78.53;;;30.80;;
3267;SDS011;1646;52.450;13.326;2022-12-16T08:37:24;72.13;;;29.00;;
3267;SDS011;1646;52.450;13.326;2022-12-16T08:42:39;71.93;;;30.73;;
3267;SDS011;1646;52.450;13.326;2022-12-16T08:47:55;65.63;;;30.20;;
3267;SDS011;1646;52.450;13.326;2022-12-16T08:53:11;68.10;;;28.60;;
3267;SDS011;1646;52.450;13.326;2022-12-16T08:58:28;67.60;;;29.07;;
3267;SDS011;1646;52.450;13.326;2022-12-16T09:03:43;57.97;;;26.97;;
3267;SDS011;1646;52.450;13.326;2022-12-16T09:09:00;63.20;;;28.20;;
3267;SDS011;1646;52.450;13.326;2022-12-16T09:14:16;63.57;;;29.10;;
3267;SDS011;1646;52.450;13.326;2022-12-16T09:19:31;66.20;;;27.10;;
3267;SDS011;1646;52.450;13.326;2022-12-16T09:24:53;67.47;;;27.80;;
3267;SDS011;1646;52.450;13.326;2022-12-16T09:30:09;63.90;;;28.60;;
3267;SDS011;1646;52.450;13.326;2022-12-16T09:35:25;67.50;;;27.87;;
3267;SDS011;1646;52.450;13.326;2022-12-16T09:40:42;73.70;;;30.33;;
3267;SDS011;1646;52.450;13.326;2022-12-16T09:45:58;70.63;;;29.93;;
3267;SDS011;1646;52.450;13.326;2022-12-16T09:51:19;69.87;;;30.43;;
3267;SDS011;1646;52.450;13.326;2022-12-16T09:56:36;61.80;;;30.10;;
3267;SDS011;1646;52.450;13.326;2022-12-16T10:01:52;64.00;;;29.80;;
3267;SDS011;1646;52.450;13.326;2022-12-16T10:07:11;69.40;;;29.23;;
3267;SDS011;1646;52.450;13.326;2022-12-16T10:12:34;69.90;;;30.40;;
3267;SDS011;1646;52.450;13.326;2022-12-16T10:17:56;65.77;;;31.03;;
3267;SDS011;1646;52.450;13.326;2022-12-16T10:23:18;58.23;;;27.70;;
3267;SDS011;1646;52.450;13.326;2022-12-16T10:28:55;61.33;;;28.23;;
3267;SDS011;1646;52.450;13.326;2022-12-16T10:34:18;68.93;;;29.50;;
3267;SDS011;1646;52.450;13.326;2022-12-16T10:39:39;56.50;;;27.10;;
3267;SDS011;1646;52.450;13.326;2022-12-16T10:44:59;59.77;;;28.03;;
3267;SDS011;1646;52.450;13.326;2022-12-16T10:50:28;63.73;;;27.50;;
3267;SDS011;1646;52.450;13.326;2022-12-16T10:55:50;61.67;;;27.00;;
3267;SDS011;1646;52.450;13.326;2022-12-16T11:01:20;60.67;;;26.07;;
3267;SDS011;1646;52.450;13.326;2022-12-16T11:06:38;64.60;;;30.00;;
3267;SDS011;1646;52.450;13.326;2022-12-16T11:11:58;72.97;;;29.70;;
3267;SDS011;1646;52.450;13.326;2022-12-16T11:17:41;63.00;;;30.17;;
3267;SDS011;1646;52.450;13.326;2022-12-16T11:23:17;68.53;;;31.20;;
3267;SDS011;1646;52.450;13.326;2022-12-16T11:28:34;71.90;;;32.10;;
3267;SDS011;1646;52.450;13.326;2022-12-16T11:33:52;112.77;;;33.83;;
3267;SDS011;1646;52.450;13.326;2022-12-16T11:39:12;71.23;;;32.43;;
3267;SDS011;1646;52.450;13.326;2022-12-16T11:44:32;68.87;;;30.93;;
3267;SDS011;1646;52.450;13.326;2022-12-16T11:49:51;59.77;;;29.37;;
3267;SDS011;1646;52.450;13.326;2022-12-16T11:55:12;60.93;;;27.53;;
3267;SDS011;1646;52.450;13.326;2022-12-16T12:00:53;63.90;;;28.97;;
3267;SDS011;1646;52.450;13.326;2022-12-16T12:06:18;54.93;;;28.23;;
3267;SDS011;1646;52.450;13.326;2022-12-16T12:11:42;55.67;;;27.73;;
3267;SDS011;1646;52.450;13.326;2022-12-16T12:17:06;58.03;;;26.40;;
3267;SDS011;1646;52.450;13.326;2022-12-16T12:22:33;51.10;;;26.10;;
3267;SDS011;1646;52.450;13.326;2022-12-16T12:27:52;51.87;;;24.63;;
3267;SDS011;1646;52.450;13.326;2022-12-16T12:33:19;52.33;;;23.60;;
3267;SDS011;1646;52.450;13.326;2022-12-16T12:38:51;47.70;;;24.17;;
3267;SDS011;1646;52.450;13.326;2022-12-16T12:44:16;43.33;;;23.30;;
3267;SDS011;1646;52.450;13.326;2022-12-16T12:49:46;52.93;;;24.47;;
3267;SDS011;1646;52.450;13.326;2022-12-16T12:55:11;50.30;;;25.53;;
3267;SDS011;1646;52.450;13.326;2022-12-16T13:00:38;52.73;;;25.30;;
3267;SDS011;1646;52.450;13.326;2022-12-16T13:06:00;58.53;;;27.60;;
3267;SDS011;1646;52.450;13.326;2022-12-16T13:11:18;53.53;;;25.43;;
3267;SDS011;1646;52.450;13.326;2022-12-16T13:22:28;52.50;;;22.20;;
3267;SDS011;1646;52.450;13.326;2022-12-16T13:27:48;50.57;;;24.67;;
3267;SDS011;1646;52.450;13.326;2022-12-16T13:33:24;53.07;;;26.00;;
3267;SDS011;1646;52.450;13.326;2022-12-16T13:38:48;53.97;;;24.87;;
3267;SDS011;1646;52.450;13.326;2022-12-16T13:44:07;52.07;;;24.47;;
3267;SDS011;1646;52.450;13.326;2022-12-16T13:55:02;58.07;;;26.10;;
3267;SDS011;1646;52.450;13.326;2022-12-16T14:00:35;57.97;;;25.10;;
3267;SDS011;1646;52.450;13.326;2022-12-16T14:05:55;49.13;;;24.40;;
3267;SDS011;1646;52.450;13.326;2022-12-16T14:11:13;58.40;;;24.30;;
3267;SDS011;1646;52.450;13.326;2022-12-16T14:16:38;51.33;;;25.40;;
3267;SDS011;1646;52.450;13.326;2022-12-16T14:22:03;54.40;;;26.33;;
3267;SDS011;1646;52.450;13.326;2022-12-16T14:27:38;55.47;;;27.90;;
3267;SDS011;1646;52.450;13.326;2022-12-16T14:32:55;58.27;;;25.77;;
3267;SDS011;1646;52.450;13.326;2022-12-16T14:38:19;59.97;;;26.80;;
3267;SDS011;1646;52.450;13.326;2022-12-16T14:43:37;60.13;;;26.03;;
3267;SDS011;1646;52.450;13.326;2022-12-16T14:48:58;52.93;;;26.37;;
3267;SDS011;1646;52.450;13.326;2022-12-16T14:54:18;50.70;;;25.40;;
3267;SDS011;1646;52.450;13.326;2022-12-16T14:59:39;65.03;;;26.50;;
3267;SDS011;1646;52.450;13.326;2022-12-16T15:04:52;60.03;;;27.40;;
3267;SDS011;1646;52.450;13.326;2022-12-16T15:10:11;59.47;;;27.60;;
3267;SDS011;1646;52.450;13.326;2022-12-16T15:15:29;57.93;;;26.60;;
3267;SDS011;1646;52.450;13.326;2022-12-16T15:20:50;59.53;;;28.10;;
3267;SDS011;1646;52.450;13.326;2022-12-16T15:26:07;60.53;;;28.87;;
3267;SDS011;1646;52.450;13.326;2022-12-16T15:31:30;66.17;;;27.60;;
3267;SDS011;1646;52.450;13.326;2022-12-16T15:36:48;66.00;;;27.37;;
3267;SDS011;1646;52.450;13.326;2022-12-16T15:42:04;60.63;;;28.97;;
3267;SDS011;1646;52.450;13.326;2022-12-16T15:47:32;58.30;;;26.40;;
3267;SDS011;1646;52.450;13.326;2022-12-16T15:52:50;57.70;;;24.73;;
3267;SDS011;1646;52.450;13.326;2022-12-16T15:58:10;50.90;;;24.40;;
3267;SDS011;1646;52.450;13.326;2022-12-16T16:03:27;58.33;;;25.30;;
3267;SDS011;1646;52.450;13.326;2022-12-16T16:08:50;55.13;;;25.10;;
3267;SDS011;1646;52.450;13.326;2022-12-16T16:14:05;57.97;;;25.73;;
3267;SDS011;1646;52.450;13.326;2022-12-16T16:19:22;53.03;;;26.27;;
3267;SDS011;1646;52.450;13.326;2022-12-16T16:24:40;55.30;;;25.17;;
3267;SDS011;1646;52.450;13.326;2022-12-16T16:30:10;52.40;;;24.63;;
3267;SDS011;1646;52.450;13.326;2022-12-16T16:35:26;52.47;;;23.90;;
3267;SDS011;1646;52.450;13.326;2022-12-16T16:40:43;57.83;;;26.47;;
3267;SDS011;1646;52.450;13.326;2022-12-16T16:46:01;61.00;;;28.23;;
3267;SDS011;1646;52.450;13.326;2022-12-16T16:51:21;71.70;;;27.87;;
3267;SDS011;1646;52.450;13.326;2022-12-16T16:56:38;52.40;;;25.23;;
3267;SDS011;1646;52.450;13.326;2022-12-16T17:01:53;55.03;;;27.20;;
3267;SDS011;1646;52.450;13.326;2022-12-16T17:07:09;58.03;;;25.63;;
3267;SDS011;1646;52.450;13.326;2022-12-16T17:12:27;54.10;;;27.93;;
3267;SDS011;1646;52.450;13.326;2022-12-16T17:17:43;52.90;;;25.50;;
3267;SDS011;1646;52.450;13.326;2022-12-16T17:22:59;55.53;;;25.30;;
3267;SDS011;1646;52.450;13.326;2022-12-16T17:28:16;54.30;;;27.47;;
3267;SDS011;1646;52.450;13.326;2022-12-16T17:33:31;62.53;;;27.63;;
3267;SDS011;1646;52.450;13.326;2022-12-16T17:38:46;68.40;;;30.60;;
3267;SDS011;1646;52.450;13.326;2022-12-16T17:44:03;69.37;;;32.33;;
3267;SDS011;1646;52.450;13.326;2022-12-16T17:49:19;69.43;;;31.70;;
3267;SDS011;1646;52.450;13.326;2022-12-16T17:54:34;74.83;;;35.50;;
3267;SDS011;1646;52.450;13.326;2022-12-16T17:59:51;78.27;;;32.97;;
3267;SDS011;1646;52.450;13.326;2022-12-16T18:05:09;75.90;;;35.90;;
3267;SDS011;1646;52.450;13.326;2022-12-16T18:10:34;75.53;;;34.33;;
3267;SDS011;1646;52.450;13.326;2022-12-16T18:15:51;79.57;;;35.67;;
3267;SDS011;1646;52.450;13.326;2022-12-16T18:21:08;89.60;;;39.73;;
3267;SDS011;1646;52.450;13.326;2022-12-16T18:26:24;85.97;;;39.53;;
3267;SDS011;1646;52.450;13.326;2022-12-16T18:31:41;91.07;;;39.83;;
3267;SDS011;1646;52.450;13.326;2022-12-16T18:36:57;91.63;;;37.20;;
3267;SDS011;1646;52.450;13.326;2022-12-16T18:42:12;83.03;;;38.67;;
3267;SDS011;1646;52.450;13.326;2022-12-16T18:47:40;112.60;;;43.60;;
3267;SDS011;1646;52.450;13.326;2022-12-16T18:52:56;101.83;;;42.57;;
3267;SDS011;1646;52.450;13.326;2022-12-16T18:58:12;101.53;;;41.70;;
3267;SDS011;1646;52.450;13.326;2022-12-16T19:03:48;98.77;;;42.30;;
3267;SDS011;1646;52.450;13.326;2022-12-16T19:09:03;95.07;;;41.07;;
3267;SDS011;1646;52.450;13.326;2022-12-16T19:14:19;101.93;;;43.87;;
3267;SDS011;1646;52.450;13.326;2022-12-16T19:19:36;104.27;;;38.20;;
3267;SDS011;1646;52.450;13.326;2022-12-16T19:24:51;90.53;;;38.50;;
3267;SDS011;1646;52.450;13.326;2022-12-16T19:30:08;94.97;;;39.80;;
3267;SDS011;1646;52.450;13.326;2022-12-16T19:35:25;100.40;;;38.90;;
3267;SDS011;1646;52.450;13.326;2022-12-16T19:40:48;108.50;;;39.60;;
3267;SDS011;1646;52.450;13.326;2022-12-16T19:46:19;108.20;;;39.20;;
3267;SDS011;1646;52.450;13.326;2022-12-16T19:51:36;122.67;;;43.00;;
3267;SDS011;1646;52.450;13.326;2022-12-16T19:56:52;127.20;;;42.20;;
3267;SDS011;1646;52.450;13.326;2022-12-16T20:02:08;119.50;;;43.53;;
3267;SDS011;1646;52.450;13.326;2022-12-16T20:07:26;125.40;;;45.87;;
3267;SDS011;1646;52.450;13.326;2022-12-16T20:12:42;137.07;;;49.20;;
3267;SDS011;1646;52.450;13.326;2022-12-16T20:17:58;134.30;;;47.80;;
3267;SDS011;1646;52.450;13.326;2022-12-16T20:23:15;144.17;;;48.20;;
3267;SDS011;1646;52.450;13.326;2022-12-16T20:28:30;141.23;;;51.10;;
3267;SDS011;1646;52.450;13.326;2022-12-16T20:33:51;135.13;;;44.73;;
3267;SDS011;1646;52.450;13.326;2022-12-16T20:39:09;130.70;;;45.63;;
3267;SDS011;1646;52.450;13.326;2022-12-16T20:44:24;111.93;;;41.37;;
3267;SDS011;1646;52.450;13.326;2022-12-16T20:49:40;124.23;;;42.30;;
3267;SDS011;1646;52.450;13.326;2022-12-16T20:54:57;101.30;;;40.07;;
3267;SDS011;1646;52.450;13.326;2022-12-16T21:00:13;113.73;;;39.07;;
3267;SDS011;1646;52.450;13.326;2022-12-16T21:05:29;106.80;;;39.30;;
3267;SDS011;1646;52.450;13.326;2022-12-16T21:10:47;94.37;;;38.50;;
3267;SDS011;1646;52.450;13.326;2022-12-16T21:16:03;103.90;;;38.03;;
3267;SDS011;1646;52.450;13.326;2022-12-16T21:21:20;103.83;;;38.60;;
3267;SDS011;1646;52.450;13.326;2022-12-16T21:26:36;107.57;;;37.33;;
3267;SDS011;1646;52.450;13.326;2022-12-16T21:31:52;112.40;;;39.10;;
3267;SDS011;1646;52.450;13.326;2022-12-16T21:37:07;117.37;;;38.67;;
3267;SDS011;1646;52.450;13.326;2022-12-16T21:42:24;108.80;;;38.50;;
3267;SDS011;1646;52.450;13.326;2022-12-16T21:47:39;109.33;;;39.00;;
3267;SDS011;1646;52.450;13.326;2022-12-16T21:52:55;117.93;;;42.67;;
3267;SDS011;1646;52.450;13.326;2022-12-16T21:58:12;108.50;;;41.23;;
3267;SDS011;1646;52.450;13.326;2022-12-16T22:03:32;132.30;;;45.27;;
3267;SDS011;1646;52.450;13.326;2022-12-16T22:08:49;113.20;;;41.00;;
3267;SDS011;1646;52.450;13.326;2022-12-16T22:14:02;128.13;;;44.43;;
3267;SDS011;1646;52.450;13.326;2022-12-16T22:19:18;136.10;;;43.80;;
3267;SDS011;1646;52.450;13.326;2022-12-16T22:24:33;137.27;;;46.97;;
3267;SDS011;1646;52.450;13.326;2022-12-16T22:29:53;126.43;;;44.10;;
3267;SDS011;1646;52.450;13.326;2022-12-16T22:35:09;136.73;;;42.50;;
3267;SDS011;1646;52.450;13.326;2022-12-16T22:40:24;146.40;;;47.07;;
3267;SDS011;1646;52.450;13.326;2022-12-16T22:45:57;128.40;;;43.47;;
3267;SDS011;1646;52.450;13.326;2022-12-16T22:51:14;125.37;;;41.40;;
3267;SDS011;1646;52.450;13.326;2022-12-16T22:56:30;125.13;;;40.03;;
3267;SDS011;1646;52.450;13.326;2022-12-16T23:01:48;123.67;;;40.83;;
3267;SDS011;1646;52.450;13.326;2022-12-16T23:07:03;125.67;;;42.40;;
3267;SDS011;1646;52.450;13.326;2022-12-16T23:12:19;131.30;;;41.07;;
3267;SDS011;1646;52.450;13.326;2022-12-16T23:17:36;121.70;;;42.07;;
3267;SDS011;1646;52.450;13.326;2022-12-16T23:22:52;106.10;;;37.87;;
3267;SDS011;1646;52.450;13.326;2022-12-16T23:28:08;112.80;;;40.07;;
3267;SDS011;1646;52.450;13.326;2022-12-16T23:33:25;127.77;;;40.87;;
3267;SDS011;1646;52.450;13.326;2022-12-16T23:38:40;126.13;;;37.60;;
3267;SDS011;1646;52.450;13.326;2022-12-16T23:43:56;120.97;;;38.00;;
3267;SDS011;1646;52.450;13.326;2022-12-16T23:49:13;115.57;;;36.73;;
3267;SDS011;1646;52.450;13.326;2022-12-16T23:54:29;120.33;;;40.00;;
3267;SDS011;1646;52.450;13.326;2022-12-16T23:59:44;112.67;;;39.23;;
